Time,TemperatureF,DewpointF,PressureIn,WindDirection,WindDirectionDegrees,WindSpeedMPH,WindSpeedGustMPH,Humidity,HourlyPrecipIn,Conditions,Clouds,dailyrainin,SolarRadiationWatts/m^2,SoftwareType,DateUTC
2013-11-28 00:11:00,28.0,27.0,-100.00,South,173,0.0,3.0,96,-99.99,,,-99.99,0.010000,,2013-11-28 07:11:00,
2013-11-28 00:21:00,27.0,26.0,-100.00,SSE,162,3.0,3.0,96,-99.99,,,-99.99,0.010000,,2013-11-28 07:21:00,
2013-11-28 02:21:00,26.0,25.0,-100.00,SSW,197,3.0,4.0,96,-99.99,,,-99.99,0.050000,,2013-11-28 09:21:00,
2013-11-28 07:22:00,23.0,22.0,-100.00,ENE,78,0.0,2.0,93,-99.99,,,-99.99,0.080000,,2013-11-28 14:22:00,
2013-11-28 07:42:00,24.0,22.0,-100.00,West,270,2.0,4.0,94,-99.99,,,-99.99,0.220000,,2013-11-28 14:42:00,
2013-11-28 08:54:00,25.0,24.0,-100.00,South,172,1.0,4.0,94,-99.99,,,-99.99,108.900002,,2013-11-28 15:54:00,
2013-11-28 09:23:00,29.0,27.0,-100.00,South,184,5.0,6.0,90,-99.99,,,-99.99,201.300003,,2013-11-28 16:23:00,
2013-11-28 09:40:00,38.0,30.0,-100.00,South,174,2.0,4.0,71,-99.99,,,-99.99,352.600006,,2013-11-28 16:40:00,
2013-11-28 09:43:00,32.0,28.0,-100.00,South,170,4.0,4.0,86,-99.99,,,-99.99,266.500000,,2013-11-28 16:43:00,
2013-11-28 10:23:00,38.0,30.0,-100.00,South,174,2.0,4.0,71,-99.99,,,-99.99,352.600006,,2013-11-28 17:23:00,
2013-11-28 10:33:00,38.0,30.0,-100.00,South,174,2.0,4.0,71,-99.99,,,-99.99,352.600006,,2013-11-28 17:33:00,
2013-11-28 11:21:00,46.0,27.0,-100.00,ESE,117,6.0,9.0,47,-99.99,,,-99.99,470.000000,,2013-11-28 18:21:00,
2013-11-28 12:22:00,50.0,25.0,-100.00,ENE,66,5.0,9.0,38,-99.99,,,-99.99,540.900024,,2013-11-28 19:22:00,
2013-11-28 13:11:00,51.0,25.0,-100.00,ESE,114,8.0,10.0,36,-99.99,,,-99.99,503.399994,,2013-11-28 20:11:00,
2013-11-28 13:21:00,53.0,25.0,-100.00,ESE,114,6.0,9.0,33,-99.99,,,-99.99,542.000000,,2013-11-28 20:21:00,
2013-11-28 13:42:00,54.0,25.0,-100.00,East,94,4.0,6.0,32,-99.99,,,-99.99,506.600006,,2013-11-28 20:42:00,
2013-11-28 14:21:00,51.0,24.0,-100.00,NNW,334,3.0,6.0,33,-99.99,,,-99.99,318.200012,,2013-11-28 21:21:00,
2013-11-28 15:23:00,51.0,24.0,-100.00,NNW,347,1.0,5.0,34,-99.99,,,-99.99,210.100006,,2013-11-28 22:23:00,
2013-11-28 15:42:00,51.0,24.0,-100.00,North,2,2.0,5.0,35,-99.99,,,-99.99,143.500000,,2013-11-28 22:42:00,
2013-11-28 16:21:00,50.0,24.0,-100.00,NNE,30,4.0,4.0,35,-99.99,,,-99.99,112.300003,,2013-11-28 23:21:00,
2013-11-28 17:21:00,46.0,28.0,-100.00,North,8,5.0,6.0,50,-99.99,,,-99.99,24.750000,,2013-11-29 00:21:00,
2013-11-28 17:52:00,44.0,30.0,-100.00,North,354,5.0,6.0,59,-99.99,,,-99.99,0.770000,,2013-11-29 00:52:00,
2013-11-28 18:01:00,44.0,30.0,-100.00,North,354,5.0,6.0,59,-99.99,,,-99.99,0.770000,,2013-11-29 01:01:00,
2013-11-28 18:21:00,42.0,31.0,-100.00,North,1,5.0,5.0,63,-99.99,,,-99.99,0.000000,,2013-11-29 01:21:00,
2013-11-28 19:21:00,35.0,29.0,-100.00,SSW,197,5.0,7.0,78,-99.99,,,-99.99,0.000000,,2013-11-29 02:21:00,
2013-11-28 20:21:00,34.0,29.0,-100.00,ENE,76,1.0,3.0,81,-99.99,,,-99.99,0.000000,,2013-11-29 03:21:00,
2013-11-28 21:23:00,34.0,29.0,-100.00,SW,221,2.0,4.0,84,-99.99,,,-99.99,0.000000,,2013-11-29 04:23:00,
2013-11-28 21:42:00,33.0,30.0,-100.00,SSE,156,2.0,4.0,87,-99.99,,,-99.99,0.000000,,2013-11-29 04:42:00,
2013-11-28 22:22:00,32.0,29.0,-100.00,NNW,327,2.0,3.0,89,-99.99,,,-99.99,0.000000,,2013-11-29 05:22:00,
2013-11-28 22:42:00,32.0,29.0,-100.00,North,9,2.0,3.0,88,-99.99,,,-99.99,0.000000,,2013-11-29 05:42:00,
2013-11-28 23:12:00,31.0,29.0,-100.00,NNW,345,4.0,5.0,90,-99.99,,,-99.99,0.000000,,2013-11-29 06:12:00,
2013-11-28 23:22:00,31.0,29.0,-100.00,North,356,3.0,4.0,92,-99.99,,,-99.99,0.000000,,2013-11-29 06:22:00,
2013-11-28 23:42:00,31.0,29.0,-100.00,NE,36,3.0,3.0,91,-99.99,,,-99.99,0.000000,,2013-11-29 06:42:00,